Time;durP1;ratioP1;P1;durP2;ratioP2;P2;SDS_P1;SDS_P2;PMS_P1;PMS_P2;Temp;Humidity;BMP_temperature;BMP_pressure;BME280_temperature;BME280_humidity;BME280_pressure;Samples;Min_cycle;Max_cycle;Signal;HPM_P1;HPM_P2
2023/07/11 00:00:22;;;;;;;4.40;3.13;;;19.90;96.00;;;20.46;95.76;98378.19;4961777;28;20470;-80
2023/07/11 00:02:52;;;;;;;6.00;3.20;;;19.90;96.00;;;20.46;95.75;98373.66;4963162;28;20457;-80
2023/07/11 00:05:22;;;;;;;5.67;4.00;;;19.80;96.30;;;20.44;96.16;98374.97;4960426;28;20465;-80
2023/07/11 00:07:54;;;;;;;7.17;2.77;;;19.80;96.10;;;20.38;96.27;98376.72;4960007;28;20507;-80
2023/07/11 00:10:24;;;;;;;6.17;3.27;;;19.80;96.10;;;20.40;96.38;98374.66;4960197;28;20473;-80
2023/07/11 00:12:54;;;;;;;7.47;3.33;;;19.70;96.10;;;20.35;96.39;98366.59;4958221;28;20500;-80
2023/07/11 00:15:25;;;;;;;6.20;3.50;;;19.80;96.10;;;20.29;96.64;98372.88;4958150;28;20479;-81
2023/07/11 00:17:55;;;;;;;7.97;3.20;;;19.70;96.10;;;20.27;97.01;98368.81;4962809;28;20461;-80
2023/07/11 00:20:25;;;;;;;4.00;3.30;;;19.70;96.40;;;20.26;97.47;98368.00;4959090;28;20524;-81
2023/07/11 00:22:56;;;;;;;5.50;3.63;;;19.60;96.50;;;20.19;97.71;98367.34;4962561;28;20465;-81
2023/07/11 00:25:26;;;;;;;5.43;3.17;;;19.60;96.40;;;20.16;97.85;98367.03;4960104;28;20473;-80
2023/07/11 00:27:56;;;;;;;4.77;2.60;;;19.50;96.60;;;20.13;98.20;98363.00;4961640;28;21038;-80
2023/07/11 00:30:25;;;;;;;4.70;3.10;;;19.50;96.60;;;20.09;98.49;98367.19;4961377;28;20479;-80
2023/07/11 00:32:56;;;;;;;10.30;4.10;;;19.50;96.60;;;20.00;99.44;98363.31;4959404;28;20471;-81
2023/07/11 00:35:26;;;;;;;4.53;3.00;;;19.40;96.60;;;19.98;99.42;98368.06;4957576;28;21267;-80
2023/07/11 00:37:56;;;;;;;5.87;3.60;;;19.40;96.60;;;19.95;99.59;98360.56;4961861;28;20564;-80
2023/07/11 00:40:26;;;;;;;5.50;3.13;;;19.40;96.60;;;19.92;99.71;98356.53;4956394;28;20473;-81
2023/07/11 00:42:56;;;;;;;6.10;3.57;;;19.40;96.50;;;19.92;99.28;98364.50;4959435;28;20473;-80
2023/07/11 00:46:05;;;;;;;6.43;3.73;;;19.30;96.50;;;19.92;99.72;98366.38;4959260;28;20484;-81
2023/07/11 00:48:43;;;;;;;4.93;3.17;;;19.30;96.80;;;19.85;99.33;98365.72;4957230;28;20604;-81
2023/07/11 00:51:19;;;;;;;5.83;3.37;;;19.20;96.70;;;19.74;100.00;98364.72;4956886;28;21225;-80
2023/07/11 00:53:50;;;;;;;4.90;3.27;;;19.10;96.70;;;19.66;100.00;98362.44;4960707;28;20939;-80
2023/07/11 00:56:29;;;;;;;4.80;2.93;;;19.10;97.10;;;19.69;100.00;98356.66;4958756;28;20503;-80
2023/07/11 00:58:59;;;;;;;6.00;2.80;;;19.10;97.00;;;19.66;100.00;98359.78;4957011;28;20477;-80
2023/07/11 01:01:29;;;;;;;4.53;3.20;;;19.10;96.70;;;19.59;100.00;98356.47;4958125;28;21199;-81
2023/07/11 01:03:59;;;;;;;5.37;2.67;;;19.10;96.90;;;19.51;100.00;98349.69;4958769;28;20469;-80
2023/07/11 01:06:31;;;;;;;4.30;2.77;;;19.00;97.00;;;19.48;100.00;98355.47;4959027;28;20480;-81
2023/07/11 01:09:04;;;;;;;6.27;3.40;;;18.90;97.20;;;19.46;100.00;98348.78;4957342;28;21755;-80
2023/07/11 01:11:55;;;;;;;4.50;3.33;;;18.90;97.20;;;19.36;100.00;98345.91;4961026;28;20469;-80
2023/07/11 01:14:26;;;;;;;6.73;3.20;;;18.80;97.20;;;19.31;100.00;98345.78;4962412;28;20469;-80
2023/07/11 01:16:55;;;;;;;7.33;4.13;;;18.70;97.30;;;19.34;100.00;98343.47;4957090;28;20465;-80
2023/07/11 01:19:26;;;;;;;5.07;3.00;;;18.70;97.60;;;19.35;100.00;98337.13;4957992;28;20469;-80
2023/07/11 01:21:57;;;;;;;4.97;2.97;;;18.70;97.40;;;19.41;100.00;98333.56;4955105;28;20489;-80
2023/07/11 01:24:27;;;;;;;5.70;2.70;;;18.70;97.40;;;19.37;100.00;98329.75;4956674;28;20468;-80
2023/07/11 01:26:58;;;;;;;3.63;2.70;;;18.70;97.70;;;19.35;100.00;98339.78;4955935;28;21001;-81
2023/07/11 01:29:28;;;;;;;6.43;3.30;;;18.60;97.50;;;19.35;100.00;98331.84;4956342;28;20592;-80
2023/07/11 01:31:58;;;;;;;3.93;2.87;;;18.60;97.60;;;19.27;100.00;98328.75;4958505;28;20518;-80
2023/07/11 01:34:27;;;;;;;6.23;3.80;;;18.60;97.50;;;19.23;100.00;98328.41;4958171;28;20469;-81
2023/07/11 01:36:58;;;;;;;9.13;3.57;;;18.50;97.60;;;19.17;100.00;98329.34;4958857;28;20522;-81
2023/07/11 01:39:27;;;;;;;4.37;2.77;;;18.50;97.80;;;19.31;100.00;98316.63;4959425;28;20460;-81
2023/07/11 01:41:56;;;;;;;4.13;2.57;;;18.50;97.70;;;19.22;100.00;98323.34;4957848;28;20484;-81
2023/07/11 01:44:27;;;;;;;4.83;3.33;;;18.50;97.70;;;19.17;100.00;98332.00;4959385;28;20469;-80
2023/07/11 01:46:56;;;;;;;4.00;2.80;;;18.50;97.70;;;19.23;100.00;98320.44;4958392;28;20476;-80
2023/07/11 01:49:25;;;;;;;4.63;2.90;;;18.50;97.90;;;19.13;100.00;98320.25;4961359;28;20523;-80
2023/07/11 01:52:09;;;;;;;4.40;2.93;;;18.40;97.70;;;19.09;100.00;98311.16;4963098;28;20514;-81
2023/07/11 01:54:39;;;;;;;9.10;4.30;;;18.40;97.60;;;19.03;100.00;98320.03;4961492;28;20457;-81
2023/07/11 01:57:09;;;;;;;11.03;5.80;;;18.40;97.70;;;19.08;100.00;98317.50;4960002;28;20465;-80
2023/07/11 01:59:40;;;;;;;5.83;3.50;;;18.40;98.00;;;19.02;100.00;98313.94;4958095;28;20553;-81
2023/07/11 02:02:11;;;;;;;4.83;3.00;;;18.40;97.90;;;19.14;100.00;98316.56;4957241;28;20908;-81
2023/07/11 02:04:42;;;;;;;5.10;2.90;;;18.40;97.80;;;19.11;100.00;98306.44;4954708;28;20465;-80
2023/07/11 02:07:14;;;;;;;4.10;2.90;;;18.40;98.00;;;19.06;100.00;98308.97;4959432;28;20472;-82
2023/07/11 02:09:44;;;;;;;6.50;3.60;;;18.40;97.80;;;19.00;100.00;98304.63;4956475;28;20564;-82
2023/07/11 02:12:14;;;;;;;4.40;3.00;;;18.40;97.70;;;18.95;100.00;98309.81;4956569;28;21181;-80
2023/07/11 02:14:46;;;;;;;4.43;2.67;;;18.30;97.70;;;18.95;100.00;98309.81;4959640;28;20469;-80
2023/07/11 02:17:16;;;;;;;5.13;3.30;;;18.30;98.00;;;18.99;100.00;98297.69;4954855;28;20464;-81
2023/07/11 02:19:48;;;;;;;6.80;3.10;;;18.20;97.80;;;18.98;100.00;98301.41;4957881;28;20461;-80
2023/07/11 02:22:19;;;;;;;5.00;3.20;;;18.20;97.90;;;18.91;100.00;98290.13;4957598;28;20473;-80
2023/07/11 02:24:49;;;;;;;5.53;3.30;;;18.20;97.70;;;18.79;100.00;98291.97;4957322;28;21021;-80
2023/07/11 02:27:19;;;;;;;5.00;2.93;;;18.20;97.60;;;18.66;100.00;98294.88;4961575;28;20464;-80
2023/07/11 02:29:49;;;;;;;4.83;2.70;;;18.10;97.70;;;18.62;100.00;98291.09;4958191;28;20500;-80
2023/07/11 02:32:19;;;;;;;5.47;3.13;;;18.00;97.90;;;18.64;100.00;98294.31;4958891;28;20479;-81
2023/07/11 02:34:47;;;;;;;3.97;3.23;;;18.00;98.10;;;18.61;100.00;98292.91;4959704;28;21055;-81
2023/07/11 02:37:17;;;;;;;3.70;2.67;;;18.00;98.00;;;18.56;100.00;98282.22;4960328;28;20516;-80
2023/07/11 02:39:46;;;;;;;6.03;3.50;;;18.00;98.00;;;18.52;100.00;98281.88;4959512;28;20987;-80
2023/07/11 02:42:15;;;;;;;5.37;3.20;;;17.90;98.00;;;18.53;100.00;98277.41;4958423;28;20499;-82
2023/07/11 02:44:43;;;;;;;4.60;2.80;;;17.90;98.20;;;18.53;100.00;98277.41;4956822;28;20851;-82
2023/07/11 02:47:13;;;;;;;3.80;2.83;;;17.90;98.20;;;18.56;100.00;98272.44;4960773;28;20496;-81
2023/07/11 02:49:41;;;;;;;6.40;3.10;;;17.90;98.50;;;18.67;100.00;98262.88;4961774;28;20504;-81
2023/07/11 02:52:12;;;;;;;4.87;3.13;;;17.90;98.30;;;18.55;100.00;98270.81;4962974;28;20522;-82
2023/07/11 02:54:43;;;;;;;7.77;3.37;;;17.90;98.20;;;18.52;100.00;98273.94;4964629;28;20518;-81
2023/07/11 02:57:13;;;;;;;4.07;3.27;;;17.90;98.30;;;18.49;100.00;98274.38;4963400;28;20473;-82
2023/07/11 02:59:42;;;;;;;4.13;2.63;;;17.80;98.20;;;18.46;100.00;98266.91;4963869;28;20511;-82
2023/07/11 03:02:11;;;;;;;3.77;2.73;;;17.80;98.10;;;18.40;100.00;98272.28;4961628;28;21002;-81
2023/07/11 03:04:41;;;;;;;4.23;2.80;;;17.80;98.20;;;18.47;100.00;98265.84;4959393;28;20465;-82
2023/07/11 03:07:10;;;;;;;9.93;3.10;;;17.70;98.60;;;18.42;100.00;98259.66;4962577;28;21130;-82
2023/07/11 03:09:42;;;;;;;6.77;2.90;;;17.70;98.30;;;18.39;100.00;98258.28;4959501;28;20813;-81
2023/07/11 03:12:13;;;;;;;5.30;3.00;;;17.70;98.20;;;18.41;100.00;98253.53;4962763;28;20512;-85
2023/07/11 03:14:44;;;;;;;6.70;2.83;;;17.70;98.60;;;18.48;100.00;98258.72;4961585;28;20477;-82
2023/07/11 03:17:13;;;;;;;4.07;2.80;;;17.70;98.60;;;18.45;100.00;98257.34;4959293;28;20464;-82
2023/07/11 03:19:43;;;;;;;5.20;2.80;;;17.70;98.60;;;18.45;100.00;98254.69;4961599;28;20486;-82
2023/07/11 03:22:12;;;;;;;11.43;5.30;;;17.70;98.70;;;18.41;100.00;98248.25;4956897;28;20848;-83
2023/07/11 03:24:43;;;;;;;5.17;3.13;;;17.70;98.60;;;18.47;100.00;98251.78;4959060;28;20470;-84
2023/07/11 03:27:13;;;;;;;4.00;2.60;;;17.70;98.70;;;18.49;100.00;98253.19;4960955;28;20461;-84
2023/07/11 03:29:43;;;;;;;7.13;3.43;;;17.70;98.50;;;18.49;100.00;98260.31;4962760;28;20910;-84
2023/07/11 03:32:13;;;;;;;7.73;3.20;;;17.70;98.70;;;18.47;100.00;98257.91;4960662;28;20466;-85
2023/07/11 03:34:46;;;;;;;6.43;3.07;;;17.70;98.50;;;18.45;100.00;98254.69;4963293;28;20887;-84
2023/07/11 03:37:28;;;;;;;6.10;3.30;;;17.70;98.50;;;18.42;100.00;98255.16;4961775;28;20477;-84
2023/07/11 03:39:59;;;;;;;4.10;3.03;;;17.70;98.40;;;18.28;100.00;98251.13;4962293;28;20468;-85
2023/07/11 03:42:29;;;;;;;3.97;3.00;;;17.60;98.40;;;18.32;100.00;98260.22;4961635;28;20966;-85
2023/07/11 03:44:58;;;;;;;4.00;3.00;;;17.60;98.70;;;18.18;100.00;98253.56;4964137;28;20457;-85
2023/07/11 03:47:28;;;;;;;3.93;2.90;;;17.60;98.40;;;18.16;100.00;98260.09;4962956;28;20546;-84
2023/07/11 03:49:59;;;;;;;6.00;3.33;;;17.60;98.60;;;18.13;100.00;98256.06;4966273;28;21069;-84
2023/07/11 03:52:29;;;;;;;4.90;3.20;;;17.50;98.50;;;18.11;100.00;98244.91;4964755;28;20835;-88
2023/07/11 03:55:01;;;;;;;3.80;2.40;;;17.50;98.80;;;18.08;100.00;98251.47;4963483;28;20504;-84
2023/07/11 03:57:30;;;;;;;3.77;2.70;;;17.40;98.70;;;18.09;100.00;98254.91;4958455;28;20453;-86
2023/07/11 03:59:59;;;;;;;6.17;3.03;;;17.40;98.80;;;18.16;100.00;98255.59;4959985;28;21085;-85
2023/07/11 04:02:29;;;;;;;4.77;2.87;;;17.40;99.10;;;18.18;100.00;98252.75;4960315;28;20483;-85
2023/07/11 04:05:00;;;;;;;6.17;3.37;;;17.40;99.10;;;18.14;100.00;98256.88;4960674;28;20730;-88
2023/07/11 04:07:31;;;;;;;5.70;3.17;;;17.40;99.10;;;18.16;100.00;98252.97;4961219;28;21371;-85
2023/07/11 04:10:05;;;;;;;5.70;2.70;;;17.40;99.10;;;18.17;100.00;98257.22;4958784;28;20515;-84
2023/07/11 04:12:35;;;;;;;3.90;2.90;;;17.40;99.00;;;18.23;100.00;98256.31;4959901;28;20526;-84
2023/07/11 04:15:07;;;;;;;6.93;3.90;;;17.40;99.10;;;18.21;100.00;98247.78;4964930;28;21092;-84
2023/07/11 04:17:36;;;;;;;5.30;3.03;;;17.40;99.00;;;18.18;100.00;98248.25;4960653;28;20519;-84
2023/07/11 04:20:10;;;;;;;6.20;3.00;;;17.40;99.20;;;18.26;100.00;98250.53;4960509;28;20465;-85
2023/07/11 04:22:40;;;;;;;4.47;3.00;;;17.50;99.30;;;18.27;100.00;98244.22;4957531;28;20849;-84
2023/07/11 04:25:12;;;;;;;9.50;3.17;;;17.50;99.00;;;18.27;100.00;98241.56;4960511;28;20464;-86
2023/07/11 04:27:41;;;;;;;5.37;2.90;;;17.50;99.20;;;18.32;100.00;98247.00;4959597;28;20485;-84
2023/07/11 04:30:14;;;;;;;5.97;3.37;;;17.50;99.20;;;18.28;100.00;98237.09;4958890;28;20516;-85
2023/07/11 04:32:45;;;;;;;7.57;3.67;;;17.50;99.20;;;18.30;100.00;98245.59;4959918;28;20467;-87
2023/07/11 04:35:15;;;;;;;3.53;2.73;;;17.50;99.10;;;18.22;100.00;98244.13;4960286;28;20821;-86
2023/07/11 04:37:45;;;;;;;4.27;2.93;;;17.50;99.20;;;18.26;100.00;98242.59;4960887;28;20461;-87
2023/07/11 04:40:16;;;;;;;4.60;2.80;;;17.50;99.40;;;18.23;100.00;98240.41;4960677;28;20516;-86
2023/07/11 04:42:47;;;;;;;5.67;3.27;;;17.50;99.30;;;18.22;100.00;98244.13;4961690;28;20474;-86
2023/07/11 04:45:16;;;;;;;7.30;4.30;;;17.50;99.20;;;18.22;100.00;98228.25;4960171;28;20461;-86
2023/07/11 04:47:47;;;;;;;6.30;3.93;;;17.50;99.20;;;18.25;100.00;98227.78;4963603;28;20843;-86
2023/07/11 04:50:18;;;;;;;4.57;3.10;;;17.50;99.30;;;18.20;100.00;98234.78;4960950;28;20486;-86
2023/07/11 04:52:47;;;;;;;4.60;2.83;;;17.50;99.40;;;18.22;100.00;98224.78;4961325;28;20953;-86
2023/07/11 04:55:18;;;;;;;6.00;3.10;;;17.50;99.40;;;18.28;100.00;98226.50;4960432;28;20470;-86
2023/07/11 04:57:48;;;;;;;5.90;3.30;;;17.50;99.40;;;18.31;100.00;98224.19;4962628;28;20544;-86
2023/07/11 05:00:19;;;;;;;7.60;3.23;;;17.50;99.40;;;18.38;100.00;98227.53;4961539;28;20468;-86
2023/07/11 05:02:49;;;;;;;5.53;3.73;;;17.60;99.30;;;18.38;100.00;98222.22;4961589;28;20473;-86
2023/07/11 05:05:18;;;;;;;8.80;3.77;;;17.60;99.20;;;18.43;100.00;98221.53;4961803;28;20897;-86
2023/07/11 05:07:48;;;;;;;11.53;3.13;;;17.60;99.30;;;18.41;100.00;98220.94;4961434;28;20457;-85
2023/07/11 05:10:20;;;;;;;5.80;3.60;;;17.60;99.50;;;18.43;100.00;98224.97;4961602;28;20868;-87
2023/07/11 05:12:49;;;;;;;5.10;3.27;;;17.70;99.30;;;18.50;100.00;98212.44;4960493;28;20475;-86
2023/07/11 05:15:20;;;;;;;5.13;3.33;;;17.70;99.30;;;18.54;100.00;98210.13;4960717;28;20464;-86
2023/07/11 05:17:49;;;;;;;5.23;3.50;;;17.70;99.30;;;18.49;100.00;98208.16;4965498;28;20474;-86
2023/07/11 05:20:21;;;;;;;6.83;3.50;;;17.70;99.50;;;18.54;100.00;98204.81;4965159;28;20501;-87
2023/07/11 05:22:51;;;;;;;4.80;3.27;;;17.70;99.30;;;18.52;100.00;98198.97;4966703;28;20460;-86
2023/07/11 05:25:24;;;;;;;5.87;3.10;;;17.70;99.30;;;18.55;100.00;98195.84;4963915;28;20464;-87
2023/07/11 05:27:54;;;;;;;4.70;3.47;;;17.80;99.50;;;18.64;100.00;98188.34;4962803;28;20510;-86
2023/07/11 05:30:24;;;;;;;4.30;3.00;;;17.80;99.30;;;18.66;100.00;98188.91;4964009;28;21022;-86
2023/07/11 05:32:56;;;;;;;6.57;3.90;;;17.90;99.10;;;18.71;100.00;98191.69;4969814;28;20468;-86
2023/07/11 05:35:26;;;;;;;10.53;3.57;;;17.90;99.00;;;18.78;100.00;98181.75;4962901;28;20627;-86
2023/07/11 05:37:57;;;;;;;5.50;3.20;;;17.90;99.00;;;18.82;100.00;98181.03;4963610;28;20962;-86
2023/07/11 05:40:29;;;;;;;9.93;3.90;;;18.00;99.00;;;18.81;100.00;98183.91;4962002;28;20831;-86
2023/07/11 05:42:58;;;;;;;6.70;3.77;;;18.00;98.80;;;18.83;100.00;98172.03;4962419;28;20884;-86
2023/07/11 05:45:28;;;;;;;5.67;3.43;;;18.10;98.80;;;18.82;100.00;98174.91;4964814;28;20465;-86
2023/07/11 05:47:59;;;;;;;9.30;4.67;;;18.10;98.70;;;18.87;100.00;98167.88;4966336;28;20496;-87
2023/07/11 05:50:30;;;;;;;8.67;3.80;;;18.10;98.80;;;18.90;100.00;98167.41;4961952;28;20585;-86
2023/07/11 05:53:01;;;;;;;5.33;3.93;;;18.20;98.90;;;18.99;100.00;98165.97;4960470;28;21215;-86
2023/07/11 05:55:32;;;;;;;8.57;4.17;;;18.20;98.90;;;19.07;100.00;98164.78;4963958;28;20465;-86
2023/07/11 05:58:02;;;;;;;5.90;3.83;;;18.20;98.90;;;19.13;100.00;98163.81;4959500;28;20870;-86
2023/07/11 06:00:36;;;;;;;5.80;3.37;;;18.30;98.80;;;19.17;100.00;98162.31;4969636;28;20560;-86
2023/07/11 06:03:07;;;;;;;5.73;3.80;;;18.40;98.80;;;19.18;100.00;98163.94;4962189;28;20473;-86
2023/07/11 06:05:37;;;;;;;4.93;3.47;;;18.40;98.70;;;19.25;100.00;98161.13;4964266;28;20475;-86
2023/07/11 06:08:07;;;;;;;5.97;3.67;;;18.50;98.70;;;19.32;100.00;98154.63;4964865;28;20523;-86
2023/07/11 06:10:39;;;;;;;6.80;3.40;;;18.50;98.80;;;19.38;100.00;98148.34;4963304;28;20978;-85
2023/07/11 06:13:11;;;;;;;5.73;3.50;;;18.60;98.80;;;19.45;100.00;98145.56;4966136;28;20480;-86
2023/07/11 06:15:41;;;;;;;5.90;3.40;;;18.60;98.80;;;19.51;100.00;98139.28;4964826;28;21026;-87
2023/07/11 06:18:13;;;;;;;6.70;3.40;;;18.60;98.90;;;19.58;100.00;98140.72;4963616;28;21050;-86
2023/07/11 06:20:46;;;;;;;4.60;3.30;;;18.70;99.00;;;19.64;100.00;98136.31;4968229;28;20828;-86
2023/07/11 06:23:16;;;;;;;5.23;3.30;;;18.80;98.90;;;19.70;100.00;98139.84;4962383;28;20476;-86
2023/07/11 06:25:48;;;;;;;5.93;3.50;;;18.80;98.80;;;19.75;100.00;98134.63;4964145;28;21024;-86
2023/07/11 06:28:20;;;;;;;7.20;3.63;;;18.90;98.90;;;19.80;100.00;98132.03;4965603;28;20526;-86
2023/07/11 06:30:52;;;;;;;5.20;3.50;;;18.90;98.80;;;19.89;100.00;98130.56;4965950;28;20496;-86
2023/07/11 06:33:22;;;;;;;4.50;3.50;;;19.00;98.80;;;19.96;100.00;98134.66;4964153;28;20531;-85
2023/07/11 06:35:52;;;;;;;16.23;3.80;;;19.00;98.80;;;20.01;100.00;98133.94;4962206;28;20470;-86
2023/07/11 06:38:23;;;;;;;5.97;3.60;;;19.10;98.80;;;20.08;100.00;98131.91;4965419;28;20467;-86
2023/07/11 06:40:57;;;;;;;6.50;3.90;;;19.20;98.60;;;20.14;100.00;98125.59;4967319;28;20524;-86
2023/07/11 06:43:29;;;;;;;4.43;3.37;;;19.30;98.70;;;20.21;100.00;98120.09;4965865;28;20548;-86
2023/07/11 06:46:01;;;;;;;10.93;3.60;;;19.30;98.70;;;20.28;100.00;98116.25;4969840;28;20468;-87
2023/07/11 06:48:33;;;;;;;5.70;2.80;;;19.40;98.70;;;20.36;100.00;98112.34;4971440;28;20468;-87
2023/07/11 06:51:05;;;;;;;6.80;4.10;;;19.40;98.70;;;20.42;100.00;98120.13;4964561;28;20515;-86
2023/07/11 06:53:37;;;;;;;4.30;3.00;;;19.50;98.70;;;20.50;100.00;98110.94;4972543;28;20460;-86
2023/07/11 06:56:10;;;;;;;7.03;3.07;;;19.60;98.80;;;20.56;100.00;98113.38;4967923;28;20529;-86
2023/07/11 06:58:40;;;;;;;5.37;3.80;;;19.70;98.70;;;20.63;100.00;98110.53;4967763;28;20468;-87
2023/07/11 07:01:13;;;;;;;6.63;3.50;;;19.70;98.50;;;20.71;100.00;98109.28;4965873;28;20491;-86
2023/07/11 07:04:03;;;;;;;5.97;3.27;;;19.80;98.40;;;20.78;100.00;98104.59;4967120;28;20473;-86
2023/07/11 07:06:35;;;;;;;8.00;3.00;;;19.90;98.50;;;20.84;100.00;98098.25;4966862;28;20567;-86
2023/07/11 07:09:05;;;;;;;5.40;3.10;;;20.00;98.30;;;20.90;100.00;98091.91;4968683;28;20568;-86
2023/07/11 07:11:38;;;;;;;5.00;3.10;;;20.00;98.30;;;20.97;100.00;98092.53;4965237;28;20492;-86
2023/07/11 07:14:11;;;;;;;8.70;3.83;;;20.10;98.40;;;21.03;100.00;98091.53;4964706;28;20461;-86
2023/07/11 07:16:41;;;;;;;5.33;3.20;;;20.20;98.40;;;21.08;100.00;98084.38;4962458;28;20461;-86
2023/07/11 07:19:12;;;;;;;6.30;3.33;;;20.20;98.50;;;21.16;100.00;98085.81;4962930;28;20473;-85
2023/07/11 07:21:41;;;;;;;7.30;3.30;;;20.30;98.50;;;21.23;100.00;98088.25;4963552;28;20632;-86
2023/07/11 07:24:12;;;;;;;6.67;2.80;;;20.40;98.50;;;21.30;100.00;98083.53;4968851;28;20481;-86
2023/07/11 07:26:43;;;;;;;5.73;3.23;;;20.40;98.70;;;21.37;100.00;98079.59;4964872;28;20874;-86
2023/07/11 07:29:11;;;;;;;10.50;4.33;;;20.50;98.10;;;21.43;100.00;98078.56;4965948;28;20462;-86
2023/07/11 07:31:40;;;;;;;6.90;3.27;;;20.60;98.20;;;21.50;100.00;98081.81;4963140;28;20571;-86
2023/07/11 07:34:09;;;;;;;4.73;3.13;;;20.70;98.20;;;21.57;100.00;98071.75;4966979;28;20477;-86
2023/07/11 07:36:38;;;;;;;4.67;3.17;;;20.70;98.20;;;21.65;100.00;98075.78;4963247;28;20476;-86
2023/07/11 07:39:07;;;;;;;8.00;3.43;;;20.80;98.10;;;21.72;100.00;98068.38;4965464;28;20608;-86
2023/07/11 07:41:40;;;;;;;8.27;2.77;;;20.80;98.00;;;21.79;100.00;98057.50;4963537;28;20839;-86
2023/07/11 07:44:14;;;;;;;8.67;3.43;;;21.00;97.90;;;21.88;100.00;98055.94;4965590;28;20469;-85
2023/07/11 07:46:44;;;;;;;5.37;3.60;;;21.10;98.00;;;21.93;100.00;98048.81;4964851;28;20999;-85
2023/07/11 07:49:14;;;;;;;6.83;3.53;;;21.10;98.00;;;22.01;99.15;98044.84;4965588;28;20483;-86
2023/07/11 07:51:45;;;;;;;4.70;3.17;;;21.20;97.70;;;22.07;98.92;98043.81;4965287;28;20496;-86
2023/07/11 07:54:16;;;;;;;7.50;3.60;;;21.20;97.70;;;22.15;98.67;98047.81;4969206;28;20982;-86
2023/07/11 07:56:46;;;;;;;5.90;3.80;;;21.30;97.70;;;22.23;98.14;98047.31;4966728;28;20473;-86
2023/07/11 07:59:18;;;;;;;6.17;3.40;;;21.40;97.40;;;22.30;97.77;98032.69;4963355;28;20569;-86
2023/07/11 08:01:49;;;;;;;7.10;3.40;;;21.50;97.60;;;22.37;97.32;98035.09;4961617;28;20482;-85
2023/07/11 08:04:19;;;;;;;8.30;2.87;;;21.60;97.50;;;22.44;97.06;98027.66;4963762;28;20876;-86
2023/07/11 08:06:49;;;;;;;4.83;3.20;;;21.60;97.30;;;22.52;96.54;98027.16;4962488;28;20461;-87
2023/07/11 08:09:20;;;;;;;10.23;3.10;;;21.70;97.30;;;22.61;95.97;98030.09;4964100;28;20837;-86
2023/07/11 08:11:50;;;;;;;5.60;3.30;;;21.80;97.20;;;22.67;95.41;98035.19;4965668;28;20864;-86
2023/07/11 08:14:21;;;;;;;6.00;3.13;;;21.90;97.20;;;22.76;94.62;98022.16;4963354;28;20465;-86
2023/07/11 08:16:54;;;;;;;5.63;3.60;;;21.90;96.90;;;22.84;94.38;98021.63;4960393;28;20861;-86
2023/07/11 08:19:39;;;;;;;6.50;4.10;;;22.00;97.00;;;22.92;93.34;98013.06;4963901;28;20552;-86
2023/07/11 08:22:09;;;;;;;5.70;2.90;;;22.10;96.80;;;22.98;92.99;98015.47;4961476;28;20477;-87
2023/07/11 08:24:40;;;;;;;7.53;3.43;;;22.20;96.60;;;23.07;91.96;98007.75;4966377;28;20457;-86
2023/07/11 08:27:09;;;;;;;5.33;3.30;;;22.30;96.50;;;23.17;91.32;98001.59;4963527;28;20498;-85
2023/07/11 08:29:45;;;;;;;6.30;3.93;;;22.40;96.70;;;23.26;90.84;97998.09;4968202;28;20471;-86
2023/07/11 08:32:16;;;;;;;4.40;3.10;;;22.50;96.40;;;23.35;90.13;97999.16;4964789;28;20508;-85
2023/07/11 08:34:46;;;;;;;4.57;2.87;;;22.50;96.10;;;23.42;89.70;97996.25;4966538;28;20475;-85
2023/07/11 08:37:19;;;;;;;3.73;3.00;;;22.60;96.00;;;23.51;89.08;97995.41;4964012;28;20552;-86
2023/07/11 08:39:50;;;;;;;5.27;2.50;;;22.70;95.90;;;23.58;87.95;97987.13;4965985;28;20500;-86
2023/07/11 08:42:32;;;;;;;6.53;2.97;;;22.80;95.50;;;23.71;85.96;97988.41;4963006;28;20469;-86
2023/07/11 08:45:19;;;;;;;4.20;2.97;;;22.90;95.40;;;23.86;83.60;97985.69;4962963;28;20510;-86
2023/07/11 08:47:59;;;;;;;5.80;3.27;;;23.10;95.30;;;23.92;84.10;97979.22;4965769;28;20549;-86
2023/07/11 08:50:35;;;;;;;7.90;3.50;;;23.10;94.80;;;23.98;83.36;97984.28;4966032;28;20472;-86
2023/07/11 08:53:14;;;;;;;5.57;3.23;;;23.20;94.60;;;24.10;81.19;97970.59;4963705;28;20492;-86
2023/07/11 08:55:50;;;;;;;5.13;2.97;;;23.30;94.70;;;24.20;81.70;97969.75;4965023;28;20467;-86
2023/07/11 08:58:30;;;;;;;5.57;3.20;;;23.40;94.60;;;24.26;81.09;97968.69;4965589;28;20982;-86
2023/07/11 09:01:14;;;;;;;8.47;3.30;;;23.40;94.40;;;24.32;81.16;97963.03;4970115;28;20467;-87
2023/07/11 09:03:49;;;;;;;7.50;3.20;;;23.50;94.30;;;24.37;79.94;97965.66;4963684;28;20468;-86
2023/07/11 09:06:24;;;;;;;9.07;3.13;;;23.60;94.30;;;24.52;78.13;97960.19;4961578;28;20500;-86
2023/07/11 09:08:54;;;;;;;4.33;2.90;;;23.80;94.00;;;24.70;77.08;97958.72;4960294;28;20465;-87
2023/07/11 09:11:34;;;;;;;6.50;3.50;;;23.90;93.70;;;24.84;76.35;97958.91;4960510;28;20483;-86
2023/07/11 09:14:25;;;;;;;4.27;2.80;;;24.00;93.60;;;24.91;77.27;97946.00;4960318;28;20460;-86
2023/07/11 09:17:07;;;;;;;3.83;2.83;;;24.20;94.00;;;25.17;78.29;97950.03;4962008;28;20541;-86
2023/07/11 09:19:59;;;;;;;7.23;3.50;;;24.30;94.30;;;25.37;75.57;97947.13;4961449;28;20950;-86
2023/07/11 09:22:45;;;;;;;13.37;3.00;;;24.60;93.80;;;25.43;75.25;97943.34;4962881;28;20491;-86
2023/07/11 09:25:21;;;;;;;5.03;3.47;;;24.60;93.70;;;25.53;75.84;97940.56;4964786;28;21022;-86
2023/07/11 09:28:03;;;;;;;9.27;3.90;;;24.70;93.90;;;25.67;75.55;97943.34;4963844;28;20477;-86
2023/07/11 09:30:40;;;;;;;5.87;3.67;;;24.80;93.80;;;25.75;75.29;97942.72;4964989;28;20475;-86
2023/07/11 09:33:19;;;;;;;5.27;3.83;;;25.00;93.80;;;25.85;74.55;97931.88;4965005;28;20496;-86
2023/07/11 09:35:50;;;;;;;3.23;2.50;;;25.00;93.60;;;25.91;74.89;97930.72;4964893;28;20460;-86
2023/07/11 09:38:31;;;;;;;7.60;3.37;;;25.10;94.00;;;25.92;73.46;97928.81;4962344;28;21164;-86
2023/07/11 09:41:11;;;;;;;6.40;3.80;;;25.00;93.20;;;26.07;72.38;97925.91;4963890;28;20859;-86
2023/07/11 09:43:40;;;;;;;4.40;3.10;;;25.30;93.00;;;26.23;70.26;97915.81;4964391;28;20461;-85
2023/07/11 09:46:14;;;;;;;6.87;4.03;;;25.50;92.60;;;26.38;69.45;97929.78;4963227;28;20472;-86
2023/07/11 09:48:51;;;;;;;8.63;4.57;;;25.60;92.30;;;26.48;70.25;97921.56;4968040;28;20974;-86
2023/07/11 09:51:30;;;;;;;4.40;3.40;;;25.70;92.50;;;26.51;70.20;97923.69;4966711;28;20473;-86
2023/07/11 09:54:00;;;;;;;4.67;3.53;;;25.70;92.50;;;26.56;70.68;97919.31;4965855;28;21349;-85
2023/07/11 09:56:42;;;;;;;16.73;3.80;;;25.80;92.70;;;26.56;70.44;97919.31;4965251;28;20518;-85
2023/07/11 09:59:14;;;;;;;5.43;3.67;;;25.80;92.50;;;26.61;68.89;97913.88;4961807;28;20465;-86
2023/07/11 10:01:46;;;;;;;6.10;3.40;;;25.80;92.20;;;26.67;67.25;97910.00;4961068;28;20551;-86
2023/07/11 10:04:23;;;;;;;5.80;3.83;;;25.90;91.80;;;26.76;65.70;97902.91;4963368;28;20471;-86
2023/07/11 10:06:59;;;;;;;6.33;3.73;;;26.00;91.40;;;26.92;62.93;97909.59;4965999;28;20460;-86
2023/07/11 10:09:32;;;;;;;5.80;3.67;;;26.20;90.50;;;27.00;62.98;97908.94;4964795;28;20547;-86
2023/07/11 10:12:04;;;;;;;5.37;3.27;;;26.30;90.70;;;26.98;63.24;97905.72;4961280;28;20498;-86
2023/07/11 10:14:39;;;;;;;13.00;4.03;;;26.20;90.60;;;26.98;64.01;97895.78;4965150;28;20515;-86
2023/07/11 10:17:20;;;;;;;8.20;3.77;;;26.20;90.80;;;26.96;62.02;97902.56;4969264;28;20465;-86
2023/07/11 10:19:56;;;;;;;5.33;4.13;;;26.20;90.20;;;27.06;59.39;97902.38;4972675;28;21040;-84
2023/07/11 10:22:37;;;;;;;9.47;3.80;;;26.30;89.00;;;27.12;58.88;97901.16;4971787;28;20476;-86
2023/07/11 10:25:21;;;;;;;8.30;3.60;;;26.30;88.80;;;27.18;59.71;97894.59;4969107;28;20460;-86
2023/07/11 10:27:56;;;;;;;6.03;3.60;;;26.40;89.50;;;27.24;60.37;97898.00;4969068;28;20463;-86
2023/07/11 10:30:30;;;;;;;15.03;3.57;;;26.50;90.00;;;27.26;61.77;97880.50;4968471;28;20521;-86
2023/07/11 10:33:13;;;;;;;6.27;3.57;;;26.50;90.40;;;27.29;60.10;97879.88;4969130;28;20619;-86
2023/07/11 10:36:03;;;;;;;5.60;3.60;;;26.60;90.10;;;27.33;60.59;97890.84;4969824;28;20465;-87